Time;durP1;ratioP1;P1;durP2;ratioP2;P2;SDS_P1;SDS_P2;PMS_P1;PMS_P2;Temp;Humidity;BMP_temperature;BMP_pressure;BME280_temperature;BME280_humidity;BME280_pressure;Samples;Min_cycle;Max_cycle;Signal;HPM_P1;HPM_P2
2022/07/17 00:01:00;;;;;;;5.20;3.90;;;18.00;1.00;;;;;;7368934;19;20006;-73
2022/07/17 00:03:30;;;;;;;6.38;4.13;;;18.10;1.00;;;;;;7368783;19;20021;-73
2022/07/17 00:06:00;;;;;;;6.95;4.32;;;18.00;1.00;;;;;;7367611;19;20011;-74
2022/07/17 00:08:30;;;;;;;6.43;4.28;;;18.00;1.00;;;;;;7390355;19;20074;-73
2022/07/17 00:11:03;;;;;;;5.47;4.43;;;18.00;1.00;;;;;;7367815;19;20912;-73
2022/07/17 00:13:33;;;;;;;5.90;4.05;;;17.90;1.00;;;;;;7368324;19;20014;-73
2022/07/17 00:16:03;;;;;;;6.03;4.03;;;18.00;1.00;;;;;;7367678;19;20478;-73
2022/07/17 00:18:33;;;;;;;6.93;4.53;;;17.90;1.00;;;;;;7368599;19;20018;-73
2022/07/17 00:21:03;;;;;;;7.18;4.53;;;17.90;1.00;;;;;;7368665;19;20021;-74
2022/07/17 00:23:33;;;;;;;7.50;5.00;;;17.90;1.00;;;;;;7390156;19;20014;-73
2022/07/17 00:26:06;;;;;;;7.72;5.75;;;17.90;1.00;;;;;;7366092;19;20082;-73
2022/07/17 00:28:36;;;;;;;11.32;6.40;;;17.90;1.00;;;;;;7368323;19;20082;-73
2022/07/17 00:31:06;;;;;;;8.57;5.82;;;17.90;1.00;;;;;;7368403;19;20085;-73
2022/07/17 00:33:36;;;;;;;9.57;5.32;;;17.90;1.00;;;;;;7368492;19;20045;-73
2022/07/17 00:36:07;;;;;;;6.13;4.80;;;17.70;1.00;;;;;;7367174;19;20018;-73
2022/07/17 00:38:37;;;;;;;7.15;4.88;;;17.60;1.00;;;;;;7390195;19;20358;-73
2022/07/17 00:41:10;;;;;;;7.38;4.65;;;17.50;1.00;;;;;;7369250;19;20015;-72
2022/07/17 00:43:39;;;;;;;6.95;4.03;;;17.50;1.00;;;;;;7375438;19;20018;-72
2022/07/17 00:46:10;;;;;;;5.53;4.13;;;17.50;1.00;;;;;;7373525;19;20010;-73
2022/07/17 00:48:40;;;;;;;6.13;4.30;;;17.30;1.00;;;;;;7375659;19;20010;-72
2022/07/17 00:51:10;;;;;;;9.30;6.50;;;17.10;1.00;;;;;;7375616;19;20011;-72
2022/07/17 00:53:41;;;;;;;8.68;6.35;;;17.00;1.00;;;;;;7397468;19;20029;-73
2022/07/17 00:56:15;;;;;;;14.70;7.05;;;16.90;1.00;;;;;;7373614;19;20071;-74
2022/07/17 00:58:46;;;;;;;10.50;6.82;;;16.80;1.00;;;;;;7375006;19;20077;-72
2022/07/17 01:01:16;;;;;;;7.97;6.22;;;16.80;1.00;;;;;;7375681;19;20038;-73
2022/07/17 01:03:46;;;;;;;8.13;6.78;;;16.70;1.00;;;;;;7375119;19;20010;-73
2022/07/17 01:06:16;;;;;;;10.13;6.75;;;16.70;1.00;;;;;;7374187;19;20032;-72
2022/07/17 01:08:46;;;;;;;12.65;7.20;;;16.70;1.00;;;;;;7396784;19;20424;-73
2022/07/17 01:11:19;;;;;;;9.52;7.63;;;16.50;1.00;;;;;;7374974;19;20035;-73
2022/07/17 01:13:49;;;;;;;9.00;7.18;;;16.40;1.00;;;;;;7373866;19;20087;-72
2022/07/17 01:16:19;;;;;;;12.82;8.02;;;16.30;1.00;;;;;;7373121;19;20031;-73
2022/07/17 01:18:49;;;;;;;8.70;7.25;;;16.30;1.00;;;;;;7374379;19;20035;-73
2022/07/17 01:21:21;;;;;;;7.95;5.80;;;16.40;1.00;;;;;;7375203;19;20090;-73
2022/07/17 01:23:52;;;;;;;9.90;5.35;;;16.50;1.00;;;;;;7381301;19;20014;-73
2022/07/17 01:26:21;;;;;;;9.55;5.28;;;16.50;1.00;;;;;;7394262;19;20018;-73
2022/07/17 01:28:52;;;;;;;6.20;4.40;;;16.50;1.00;;;;;;7373061;19;20002;-73
2022/07/17 01:31:22;;;;;;;6.28;4.85;;;16.50;1.00;;;;;;7374407;19;20009;-73
2022/07/17 01:33:53;;;;;;;7.07;4.45;;;16.50;1.00;;;;;;7374189;19;20006;-73
2022/07/17 01:36:27;;;;;;;10.73;4.53;;;16.50;1.00;;;;;;7373810;19;20086;-72
2022/07/17 01:38:57;;;;;;;6.35;4.22;;;16.50;1.00;;;;;;7374021;19;20123;-72
2022/07/17 01:41:27;;;;;;;7.47;4.65;;;16.40;1.00;;;;;;7395665;19;20019;-72
2022/07/17 01:43:59;;;;;;;9.05;4.93;;;16.40;1.00;;;;;;7373304;19;20073;-73
2022/07/17 01:46:29;;;;;;;8.30;4.32;;;16.40;1.00;;;;;;7371754;19;20182;-73
2022/07/17 01:49:00;;;;;;;7.10;4.50;;;16.40;1.00;;;;;;7374558;19;20006;-73
2022/07/17 01:51:33;;;;;;;6.45;4.70;;;16.30;1.00;;;;;;7373556;19;20006;-73
2022/07/17 01:54:03;;;;;;;6.72;4.32;;;16.30;1.00;;;;;;7373016;19;20018;-73
2022/07/17 01:56:33;;;;;;;7.53;5.10;;;16.30;1.00;;;;;;7393297;19;20026;-73
2022/07/17 01:59:03;;;;;;;6.38;4.78;;;16.20;1.00;;;;;;7372762;19;20031;-73
2022/07/17 02:01:33;;;;;;;6.47;4.30;;;16.20;1.00;;;;;;7372026;19;20011;-73
2022/07/17 02:04:03;;;;;;;4.53;4.10;;;16.40;1.00;;;;;;7372579;19;20010;-73
2022/07/17 02:06:35;;;;;;;10.00;4.28;;;16.40;1.00;;;;;;7371010;19;20478;-73
2022/07/17 02:09:06;;;;;;;6.53;4.38;;;16.20;1.00;;;;;;7373095;19;20014;-72
2022/07/17 02:11:36;;;;;;;9.63;4.07;;;16.10;1.00;;;;;;7394714;19;20022;-72
2022/07/17 02:14:06;;;;;;;8.43;4.45;;;16.00;1.00;;;;;;7372565;19;20045;-72
2022/07/17 02:16:36;;;;;;;7.05;4.97;;;16.00;1.00;;;;;;7371283;19;20479;-73
2022/07/17 02:19:06;;;;;;;6.43;4.20;;;15.90;1.00;;;;;;7371931;19;20018;-72
2022/07/17 02:21:38;;;;;;;8.23;4.57;;;15.90;1.00;;;;;;7372629;19;20014;-72
2022/07/17 02:24:09;;;;;;;9.13;5.15;;;15.80;1.00;;;;;;7372739;19;20434;-72
2022/07/17 02:26:39;;;;;;;7.68;4.82;;;15.80;1.00;;;;;;7392165;19;20015;-72
2022/07/17 02:29:09;;;;;;;7.20;4.55;;;15.70;1.00;;;;;;7371908;19;20019;-72
2022/07/17 02:31:39;;;;;;;5.88;4.38;;;15.70;1.00;;;;;;7372084;19;20027;-72
2022/07/17 02:34:09;;;;;;;7.75;4.93;;;15.70;1.00;;;;;;7372226;19;20075;-72
2022/07/17 02:36:41;;;;;;;6.72;4.60;;;15.60;1.00;;;;;;7371126;19;20489;-72
2022/07/17 02:39:11;;;;;;;6.25;5.07;;;15.50;1.00;;;;;;7372772;19;20020;-72
2022/07/17 02:41:41;;;;;;;8.98;4.63;;;15.50;1.00;;;;;;7393839;19;20336;-73
2022/07/17 02:44:11;;;;;;;5.10;4.00;;;15.40;1.00;;;;;;7371955;19;20028;-71
2022/07/17 02:46:41;;;;;;;24.58;4.88;;;15.40;1.00;;;;;;7369790;19;20537;-72
2022/07/17 02:49:11;;;;;;;6.78;4.75;;;15.40;1.00;;;;;;7372270;19;20007;-72
2022/07/17 02:51:44;;;;;;;5.85;4.63;;;15.30;1.00;;;;;;7371019;19;20726;-73
2022/07/17 02:54:14;;;;;;;7.47;4.40;;;15.40;1.00;;;;;;7372004;19;20011;-73
2022/07/17 02:56:43;;;;;;;8.02;4.78;;;15.30;1.00;;;;;;7390975;19;20014;-72
2022/07/17 02:59:13;;;;;;;5.28;4.43;;;15.40;1.00;;;;;;7370717;19;20015;-73
2022/07/17 03:01:43;;;;;;;10.00;4.60;;;15.30;1.00;;;;;;7371172;19;20010;-73
2022/07/17 03:04:13;;;;;;;7.03;4.38;;;15.30;1.00;;;;;;7369307;19;20561;-72
2022/07/17 03:06:46;;;;;;;6.65;4.57;;;15.30;1.00;;;;;;7370093;19;20082;-72
2022/07/17 03:09:20;;;;;;;6.15;4.93;;;15.20;1.00;;;;;;7371448;19;20007;-72
2022/07/17 03:11:50;;;;;;;5.43;4.35;;;15.20;1.00;;;;;;7392245;19;20524;-73
2022/07/17 03:14:20;;;;;;;6.57;4.20;;;15.20;1.00;;;;;;7370966;19;20487;-73
2022/07/17 03:16:51;;;;;;;10.98;4.85;;;15.20;1.00;;;;;;7368246;19;20011;-73
2022/07/17 03:19:22;;;;;;;7.75;4.78;;;15.10;1.00;;;;;;7370832;19;20551;-73
2022/07/17 03:21:55;;;;;;;5.00;4.50;;;15.10;1.00;;;;;;7370665;19;20049;-73
2022/07/17 03:24:25;;;;;;;7.88;4.38;;;15.10;1.00;;;;;;7370829;19;20015;-72
2022/07/17 03:26:55;;;;;;;5.70;4.95;;;15.10;1.00;;;;;;7368343;19;20011;-72
2022/07/17 03:29:25;;;;;;;5.47;4.63;;;15.10;1.00;;;;;;7391820;19;20010;-71
2022/07/17 03:31:55;;;;;;;6.45;5.50;;;14.90;1.00;;;;;;7369424;19;20346;-72
2022/07/17 03:34:25;;;;;;;6.28;4.82;;;14.90;1.00;;;;;;7370412;19;20500;-72
2022/07/17 03:37:00;;;;;;;7.35;5.15;;;14.90;1.00;;;;;;7368777;19;20030;-72
2022/07/17 03:39:30;;;;;;;6.47;4.95;;;14.70;1.00;;;;;;7369735;19;20069;-71
2022/07/17 03:42:00;;;;;;;8.27;6.30;;;14.70;1.00;;;;;;7370114;19;20013;-71
2022/07/17 03:44:30;;;;;;;7.50;5.45;;;14.70;1.00;;;;;;7391429;19;20077;-71
2022/07/17 03:47:00;;;;;;;6.68;5.97;;;14.60;1.00;;;;;;7367114;19;20094;-72
2022/07/17 03:49:30;;;;;;;8.07;5.65;;;14.60;1.00;;;;;;7369763;19;20011;-72
2022/07/17 03:52:02;;;;;;;10.10;6.30;;;14.50;1.00;;;;;;7369631;19;20558;-72
2022/07/17 03:54:32;;;;;;;9.00;6.20;;;14.50;1.00;;;;;;7370241;19;20011;-71
2022/07/17 03:57:02;;;;;;;8.48;6.10;;;14.90;1.00;;;;;;7366595;19;20010;-71
2022/07/17 03:59:32;;;;;;;9.65;6.05;;;15.50;1.00;;;;;;7390842;19;20504;-71
2022/07/17 04:02:02;;;;;;;14.57;6.18;;;16.00;1.00;;;;;;7368970;19;20010;-72
2022/07/17 04:04:32;;;;;;;6.18;5.35;;;16.40;1.00;;;;;;7369820;19;20007;-72
2022/07/17 04:07:04;;;;;;;6.38;5.45;;;16.90;1.00;;;;;;7367767;19;20111;-72
2022/07/17 04:09:34;;;;;;;6.50;5.28;;;17.50;1.00;;;;;;7369453;19;20014;-73
2022/07/17 04:12:04;;;;;;;7.65;5.28;;;17.60;1.00;;;;;;7368981;19;20082;-72
2022/07/17 04:14:34;;;;;;;9.55;5.78;;;17.70;1.00;;;;;;7391056;19;20367;-72
2022/07/17 04:17:03;;;;;;;7.13;5.88;;;17.40;1.00;;;;;;7366016;19;20014;-72
2022/07/17 04:19:33;;;;;;;7.78;5.57;;;18.60;1.00;;;;;;7369456;19;20024;-72
2022/07/17 04:22:06;;;;;;;5.70;5.00;;;18.70;1.00;;;;;;7368736;19;20010;-72
2022/07/17 04:24:36;;;;;;;5.93;5.32;;;19.80;1.00;;;;;;7369587;19;20010;-71
2022/07/17 04:27:06;;;;;;;7.75;5.00;;;19.90;1.00;;;;;;7366442;19;20018;-72
2022/07/17 04:29:36;;;;;;;10.95;5.45;;;20.00;1.00;;;;;;7390562;19;20097;-72
2022/07/17 04:32:08;;;;;;;8.82;4.85;;;20.10;1.00;;;;;;7368812;19;20481;-71
2022/07/17 04:34:38;;;;;;;6.38;4.90;;;20.00;1.00;;;;;;7368746;19;20572;-73
2022/07/17 04:37:11;;;;;;;6.30;4.88;;;20.40;1.00;;;;;;7368210;19;20097;-73
2022/07/17 04:39:41;;;;;;;8.55;5.43;;;20.40;1.00;;;;;;7368924;19;20006;-72
2022/07/17 04:42:10;;;;;;;6.38;4.88;;;20.80;1.00;;;;;;7368650;19;20083;-72
2022/07/17 04:44:40;;;;;;;7.45;5.05;;;21.00;1.00;;;;;;7390485;19;20113;-73
2022/07/17 04:47:10;;;;;;;7.25;5.30;;;21.40;1.00;;;;;;7365831;19;20022;-72
2022/07/17 04:49:40;;;;;;;10.15;5.25;;;22.30;1.00;;;;;;7368411;19;20006;-72
2022/07/17 04:52:13;;;;;;;8.82;5.60;;;22.10;1.00;;;;;;7367097;19;20031;-72
2022/07/17 04:54:42;;;;;;;8.90;5.50;;;22.20;1.00;;;;;;7368131;19;20036;-72
2022/07/17 04:57:12;;;;;;;6.72;4.97;;;22.00;1.00;;;;;;7365831;19;20115;-73
2022/07/17 04:59:42;;;;;;;8.57;6.13;;;23.00;1.00;;;;;;7390995;19;20018;-72
2022/07/17 05:02:12;;;;;;;8.27;5.18;;;22.60;1.00;;;;;;7367702;19;20021;-72
2022/07/17 05:04:42;;;;;;;9.18;5.97;;;23.10;1.00;;;;;;7368451;19;20017;-72
2022/07/17 05:07:15;;;;;;;9.70;6.20;;;22.70;1.00;;;;;;7366991;19;20477;-71
2022/07/17 05:09:45;;;;;;;7.53;5.93;;;22.80;1.00;;;;;;7366246;19;20103;-72
2022/07/17 05:12:14;;;;;;;8.27;6.05;;;23.10;1.00;;;;;;7368126;19;20028;-72
2022/07/17 05:14:44;;;;;;;7.75;4.90;;;23.00;1.00;;;;;;7389479;19;20082;-72
2022/07/17 05:17:14;;;;;;;7.90;5.03;;;23.50;1.00;;;;;;7365582;19;20069;-72
2022/07/17 05:19:45;;;;;;;7.45;5.00;;;23.90;1.00;;;;;;7367413;19;20017;-72
2022/07/17 05:22:17;;;;;;;5.50;3.72;;;23.40;1.00;;;;;;7366761;19;20352;-72
2022/07/17 05:24:47;;;;;;;12.38;4.60;;;23.90;1.00;;;;;;7367351;19;20029;-73
2022/07/17 05:27:17;;;;;;;6.78;4.10;;;24.30;1.00;;;;;;7366711;19;20015;-73
2022/07/17 05:29:46;;;;;;;5.28;4.20;;;23.80;1.00;;;;;;7394643;19;20003;-72
2022/07/17 05:32:16;;;;;;;7.18;4.53;;;23.40;1.00;;;;;;7374584;19;20358;-73
2022/07/17 05:34:46;;;;;;;4.70;4.28;;;23.10;1.00;;;;;;7374194;19;20002;-72
2022/07/17 05:37:19;;;;;;;7.07;4.07;;;23.30;1.00;;;;;;7372359;19;20476;-72
2022/07/17 05:39:49;;;;;;;5.22;4.00;;;22.70;1.00;;;;;;7373843;19;20074;-72
2022/07/17 05:42:19;;;;;;;4.82;4.00;;;23.00;1.00;;;;;;7374333;19;20011;-72
2022/07/17 05:44:48;;;;;;;5.00;4.47;;;22.50;1.00;;;;;;7395563;19;20118;-72
2022/07/17 05:47:18;;;;;;;4.28;3.88;;;23.20;1.00;;;;;;7371810;19;20006;-73
2022/07/17 05:49:48;;;;;;;7.32;4.30;;;23.10;1.00;;;;;;7372289;19;20473;-70
2022/07/17 05:52:22;;;;;;;4.32;3.92;;;23.10;1.00;;;;;;7373590;19;20433;-72
2022/07/17 05:54:52;;;;;;;14.50;3.90;;;23.50;1.00;;;;;;7373074;19;20030;-72
2022/07/17 05:57:22;;;;;;;5.55;4.28;;;23.30;1.00;;;;;;7371000;19;20035;-72
2022/07/17 05:59:52;;;;;;;6.55;3.92;;;23.30;1.00;;;;;;7378531;19;20075;-72
2022/07/17 06:02:22;;;;;;;5.25;3.85;;;23.20;1.00;;;;;;7395099;19;20014;-72
2022/07/17 06:04:52;;;;;;;5.22;3.90;;;22.40;1.00;;;;;;7372464;19;20470;-72
2022/07/17 06:07:24;;;;;;;5.03;4.00;;;21.80;1.00;;;;;;7372120;19;20034;-72
2022/07/17 06:09:54;;;;;;;4.13;3.72;;;20.50;1.00;;;;;;7371681;19;20375;-72
2022/07/17 06:12:24;;;;;;;5.10;3.80;;;21.00;1.00;;;;;;7372414;19;20082;-72
2022/07/17 06:14:54;;;;;;;3.92;3.40;;;21.90;1.00;;;;;;7373174;19;20014;-72
2022/07/17 06:17:24;;;;;;;4.72;3.63;;;22.40;1.00;;;;;;7392497;19;20015;-72
2022/07/17 06:19:54;;;;;;;5.25;3.63;;;20.50;1.00;;;;;;7372636;19;20110;-72
2022/07/17 06:22:26;;;;;;;6.68;3.38;;;21.50;1.00;;;;;;7372879;19;20031;-72
2022/07/17 06:24:56;;;;;;;5.25;3.42;;;21.00;1.00;;;;;;7372134;19;20011;-70
2022/07/17 06:27:26;;;;;;;3.53;2.70;;;20.80;1.00;;;;;;7369574;19;20101;-72
2022/07/17 06:29:56;;;;;;;6.68;3.30;;;21.30;1.00;;;;;;7370775;19;20014;-72
2022/07/17 06:32:26;;;;;;;4.30;3.20;;;22.10;1.00;;;;;;7394116;19;20498;-72
2022/07/17 06:34:56;;;;;;;4.50;2.75;;;22.50;1.00;;;;;;7371902;19;20078;-72
2022/07/17 06:37:28;;;;;;;6.22;3.03;;;22.60;1.00;;;;;;7371021;19;20102;-71
2022/07/17 06:39:58;;;;;;;2.90;2.60;;;22.40;1.00;;;;;;7369274;19;20016;-71
2022/07/17 06:42:28;;;;;;;5.35;3.10;;;22.50;1.00;;;;;;7370897;19;20470;-73
2022/07/17 06:45:01;;;;;;;4.90;2.78;;;22.10;1.00;;;;;;7370296;19;20502;-70
2022/07/17 06:47:31;;;;;;;5.50;2.55;;;21.90;1.00;;;;;;7390784;19;20002;-71
2022/07/17 06:50:01;;;;;;;2.67;2.35;;;20.90;1.00;;;;;;7368937;19;20018;-72
2022/07/17 06:52:33;;;;;;;4.47;2.70;;;21.10;1.00;;;;;;7371025;19;20010;-72
2022/07/17 06:55:03;;;;;;;3.83;2.47;;;20.50;1.00;;;;;;7371199;19;20509;-72
2022/07/17 06:57:33;;;;;;;5.63;2.50;;;20.20;1.00;;;;;;7368950;19;20366;-71
2022/07/17 07:00:03;;;;;;;4.15;2.60;;;20.40;1.00;;;;;;7371546;19;20075;-71
2022/07/17 07:02:33;;;;;;;3.47;2.85;;;20.60;1.00;;;;;;7393971;19;20017;-71
2022/07/17 07:05:02;;;;;;;3.88;2.17;;;20.40;1.00;;;;;;7370829;19;20010;-72
2022/07/17 07:07:35;;;;;;;4.22;2.42;;;20.30;1.00;;;;;;7370073;19;20454;-72
2022/07/17 07:10:05;;;;;;;5.18;2.80;;;20.60;1.00;;;;;;7371028;19;20034;-72
2022/07/17 07:12:35;;;;;;;5.18;2.78;;;20.70;1.00;;;;;;7372385;19;20023;-72
2022/07/17 07:15:06;;;;;;;4.97;2.55;;;20.70;1.00;;;;;;7370799;19;20074;-72
2022/07/17 07:17:42;;;;;;;4.57;2.80;;;20.60;1.00;;;;;;7390040;19;20018;-71
2022/07/17 07:20:13;;;;;;;4.30;2.50;;;21.10;1.00;;;;;;7371441;19;19999;-71
2022/07/17 07:22:46;;;;;;;4.40;2.58;;;20.60;1.00;;;;;;7370188;19;20010;-71
2022/07/17 07:25:16;;;;;;;5.30;2.50;;;21.00;1.00;;;;;;7370403;19;20010;-71
2022/07/17 07:27:46;;;;;;;5.45;2.47;;;21.30;1.00;;;;;;7370591;19;20093;-70
2022/07/17 07:30:16;;;;;;;2.25;2.05;;;21.50;1.00;;;;;;7369756;19;20014;-72
2022/07/17 07:32:46;;;;;;;4.05;2.35;;;21.30;1.00;;;;;;7391790;19;20015;-72
2022/07/17 07:35:16;;;;;;;3.35;2.33;;;21.70;1.00;;;;;;7370451;19;20014;-71
2022/07/17 07:37:48;;;;;;;3.42;2.53;;;21.80;1.00;;;;;;7368501;19;20074;-72
2022/07/17 07:40:18;;;;;;;3.30;2.53;;;22.00;1.00;;;;;;7369268;19;20017;-72
2022/07/17 07:42:48;;;;;;;2.83;2.28;;;22.20;1.00;;;;;;7370041;19;20014;-71
2022/07/17 07:45:18;;;;;;;3.92;2.78;;;22.00;1.00;;;;;;7369952;19;20496;-72
2022/07/17 07:47:50;;;;;;;5.85;3.00;;;21.90;1.00;;;;;;7391397;19;20028;-71
2022/07/17 07:50:21;;;;;;;4.03;2.80;;;22.10;1.00;;;;;;7367634;19;20053;-71
2022/07/17 07:52:54;;;;;;;3.72;2.92;;;22.00;1.00;;;;;;7368759;19;20097;-72
2022/07/17 07:55:25;;;;;;;4.85;2.35;;;22.10;1.00;;;;;;7368527;19;20458;-73
2022/07/17 07:58:04;;;;;;;8.35;3.30;;;22.20;1.00;;;;;;7369456;19;20015;-73
2022/07/17 08:00:34;;;;;;;3.00;2.35;;;22.10;1.00;;;;;;7369489;19;20078;-71
2022/07/17 08:03:05;;;;;;;3.97;2.67;;;22.20;1.00;;;;;;7368895;19;20022;-71
2022/07/17 08:05:35;;;;;;;4.80;2.33;;;22.20;1.00;;;;;;7390499;19;20021;-71
2022/07/17 08:08:08;;;;;;;3.08;2.20;;;22.30;1.00;;;;;;7369160;19;20006;-72
2022/07/17 08:10:38;;;;;;;3.05;2.40;;;22.30;1.00;;;;;;7367673;19;20393;-72
2022/07/17 08:13:08;;;;;;;5.03;2.50;;;22.40;1.00;;;;;;7369220;19;20089;-72
2022/07/17 08:15:38;;;;;;;3.47;2.00;;;22.10;1.00;;;;;;7368810;19;20015;-73
2022/07/17 08:18:18;;;;;;;2.53;1.92;;;22.30;1.00;;;;;;7369369;19;20010;-73
2022/07/17 08:20:48;;;;;;;2.63;2.15;;;22.40;1.00;;;;;;7390384;19;20019;-72
2022/07/17 08:23:21;;;;;;;4.07;2.30;;;22.40;1.00;;;;;;7369055;19;20022;-72
2022/07/17 08:25:51;;;;;;;3.47;2.28;;;22.30;1.00;;;;;;7367077;19;20014;-71
2022/07/17 08:28:21;;;;;;;3.00;2.30;;;22.70;1.00;;;;;;7369036;19;20078;-71
2022/07/17 08:30:52;;;;;;;2.97;2.25;;;23.20;1.00;;;;;;7367712;19;20429;-72
2022/07/17 08:33:22;;;;;;;3.15;1.95;;;23.30;1.00;;;;;;7368882;19;20078;-73
2022/07/17 08:35:52;;;;;;;3.20;1.95;;;23.20;1.00;;;;;;7373856;19;20014;-72
2022/07/17 08:38:25;;;;;;;2.90;1.92;;;23.30;1.00;;;;;;7388437;19;20596;-72
2022/07/17 08:40:58;;;;;;;4.78;2.35;;;23.00;1.00;;;;;;7367414;19;20078;-72
2022/07/17 08:43:28;;;;;;;4.65;2.13;;;23.00;1.00;;;;;;7368463;19;20006;-72
2022/07/17 08:46:00;;;;;;;5.38;2.30;;;23.10;1.00;;;;;;7365978;19;20474;-72
2022/07/17 08:48:30;;;;;;;4.70;2.10;;;23.50;1.00;;;;;;7367233;19;20520;-72
2022/07/17 08:51:02;;;;;;;2.20;2.00;;;23.80;1.00;;;;;;7365719;19;20466;-72
2022/07/17 08:53:35;;;;;;;3.70;2.00;;;23.40;1.00;;;;;;7389271;19;20028;-73
2022/07/17 08:56:06;;;;;;;2.70;1.98;;;23.50;1.00;;;;;;7365898;19;20019;-72
2022/07/17 08:58:36;;;;;;;2.38;2.10;;;24.00;1.00;;;;;;7367577;19;20011;-71
2022/07/17 09:01:06;;;;;;;3.05;2.33;;;23.90;1.00;;;;;;7367763;19;20021;-71
2022/07/17 09:03:36;;;;;;;4.82;2.42;;;24.20;1.00;;;;;;7374151;19;20014;-72
2022/07/17 09:06:20;;;;;;;2.47;2.08;;;24.20;1.00;;;;;;7374271;19;20010;-72
2022/07/17 09:09:03;;;;;;;3.28;2.03;;;24.10;1.00;;;;;;7397426;19;20779;-71
2022/07/17 09:11:43;;;;;;;3.22;1.98;;;24.00;1.00;;;;;;7372517;19;20142;-71
2022/07/17 09:14:13;;;;;;;2.10;1.85;;;24.10;1.00;;;;;;7374400;19;20112;-72
2022/07/17 09:16:54;;;;;;;3.42;1.95;;;24.30;1.00;;;;;;7371191;19;20006;-73
2022/07/17 09:19:29;;;;;;;2.45;1.92;;;24.60;1.00;;;;;;7373944;19;20014;-72
2022/07/17 09:22:11;;;;;;;5.05;2.00;;;24.50;1.00;;;;;;7374120;19;20007;-71
2022/07/17 09:24:49;;;;;;;3.03;2.17;;;24.40;1.00;;;;;;7374492;19;20033;-71
2022/07/17 09:27:32;;;;;;;2.55;1.77;;;24.40;1.00;;;;;;7372739;19;20018;-72
2022/07/17 09:30:04;;;;;;;3.75;2.05;;;24.60;1.00;;;;;;7373663;19;20006;-72
2022/07/17 09:32:36;;;;;;;2.08;1.88;;;24.70;1.00;;;;;;7394642;19;20021;-71
2022/07/17 09:35:10;;;;;;;2.47;1.63;;;24.90;1.00;;;;;;7372846;19;20086;-73
2022/07/17 09:37:41;;;;;;;2.03;1.55;;;24.90;1.00;;;;;;7372325;19;20344;-71
2022/07/17 09:41:09;;;;;;;1.90;1.65;;;25.00;1.00;;;;;;7374279;19;20014;-72
2022/07/17 09:43:07;;;;;;;4.07;1.58;;;25.10;1.00;;;;;;7373302;19;20010;-72
2022/07/17 09:45:38;;;;;;;3.38;1.50;;;24.90;1.00;;;;;;7373870;19;20459;-72
2022/07/17 09:48:11;;;;;;;2.45;1.70;;;25.00;1.00;;;;;;7373078;19;20010;-71
2022/07/17 09:50:41;;;;;;;2.67;1.70;;;24.90;1.00;;;;;;7394226;19;20090;-71
2022/07/17 09:53:12;;;;;;;2.40;1.58;;;24.80;1.00;;;;;;7371133;19;20011;-72
2022/07/17 09:55:47;;;;;;;2.70;1.40;;;25.10;1.00;;;;;;7369649;19;20039;-72
2022/07/17 09:58:22;;;;;;;2.08;1.60;;;25.50;1.00;;;;;;7372719;19;20017;-73
2022/07/17 10:00:52;;;;;;;3.45;1.90;;;25.40;1.00;;;;;;7371975;19;20365;-72
2022/07/17 10:03:23;;;;;;;2.22;1.50;;;25.10;1.00;;;;;;7372054;19;20017;-73
2022/07/17 10:05:53;;;;;;;3.65;1.83;;;25.00;1.00;;;;;;7370551;19;20039;-74
2022/07/17 10:08:23;;;;;;;3.75;1.88;;;25.10;1.00;;;;;;7392522;19;20018;-72
2022/07/17 10:10:56;;;;;;;2.40;1.55;;;25.00;1.00;;;;;;7370725;19;20083;-72
2022/07/17 10:13:26;;;;;;;3.75;2.00;;;25.40;1.00;;;;;;7371460;19;20011;-72
2022/07/17 10:15:56;;;;;;;2.25;1.80;;;25.70;1.00;;;;;;7370819;19;20020;-72
2022/07/17 10:18:37;;;;;;;2.90;1.58;;;25.60;1.00;;;;;;7372235;19;20010;-72
2022/07/17 10:21:14;;;;;;;3.03;1.80;;;25.50;1.00;;;;;;7372040;19;20020;-72
2022/07/17 10:23:45;;;;;;;3.17;1.48;;;25.80;1.00;;;;;;7393532;19;20108;-72
2022/07/17 10:26:18;;;;;;;4.10;1.77;;;26.00;1.00;;;;;;7367123;19;20074;-71
2022/07/17 10:28:49;;;;;;;4.78;1.80;;;26.10;1.00;;;;;;7370793;19;20023;-84
2022/07/17 10:31:27;;;;;;;4.90;1.90;;;26.30;1.00;;;;;;7369821;19;20138;-70
2022/07/17 10:33:59;;;;;;;4.05;1.70;;;25.80;1.00;;;;;;7370906;19;20010;-71
2022/07/17 10:36:39;;;;;;;3.47;1.70;;;26.20;1.00;;;;;;7370865;19;20023;-72
2022/07/17 10:39:16;;;;;;;4.10;1.73;;;26.10;1.00;;;;;;7371299;19;20018;-71
2022/07/17 10:42:00;;;;;;;4.75;1.67;;;26.30;1.00;;;;;;7393272;19;20118;-70
2022/07/17 10:44:31;;;;;;;1.92;1.60;;;26.00;1.00;;;;;;7370790;19;20003;-71
2022/07/17 10:47:01;;;;;;;3.53;2.13;;;26.30;1.00;;;;;;7369639;19;20073;-71
2022/07/17 10:49:31;;;;;;;2.35;1.67;;;26.30;1.00;;;;;;7370378;19;20470;-70
2022/07/17 10:52:01;;;;;;;3.90;1.60;;;26.40;1.00;;;;;;7370687;19;20015;-71
2022/07/17 10:54:37;;;;;;;5.13;1.63;;;26.10;1.00;;;;;;7370169;19;20524;-70
2022/07/17 10:57:10;;;;;;;2.28;1.58;;;26.30;1.00;;;;;;7365759;19;20066;-71
2022/07/17 10:59:44;;;;;;;4.65;1.63;;;26.50;1.00;;;;;;7391360;19;20088;-70
2022/07/17 11:02:14;;;;;;;1.60;1.50;;;26.60;1.00;;;;;;7370311;19;20098;-71
2022/07/17 11:04:44;;;;;;;1.88;1.50;;;26.30;1.00;;;;;;7370031;19;20023;-71
2022/07/17 11:07:16;;;;;;;6.90;1.58;;;26.30;1.00;;;;;;7369799;19;20116;-70
2022/07/17 11:09:49;;;;;;;2.22;1.70;;;26.40;1.00;;;;;;7370347;19;20021;-70
2022/07/17 11:12:33;;;;;;;1.77;1.35;;;26.60;1.00;;;;;;7369341;19;20499;-70
2022/07/17 11:15:03;;;;;;;1.67;1.42;;;26.30;1.00;;;;;;7369553;19;20707;-71
2022/07/17 11:17:33;;;;;;;1.55;1.38;;;26.40;1.00;;;;;;7389773;19;20417;-71
2022/07/17 11:20:06;;;;;;;2.00;1.67;;;26.50;1.00;;;;;;7369567;19;20006;-71
2022/07/17 11:22:36;;;;;;;2.90;1.80;;;26.60;1.00;;;;;;7368633;19;20014;-71
2022/07/17 11:25:08;;;;;;;2.03;1.70;;;26.70;1.00;;;;;;7368000;19;20022;-71
2022/07/17 11:27:41;;;;;;;2.70;2.05;;;26.60;1.00;;;;;;7368582;19;20015;-72
2022/07/17 11:30:16;;;;;;;1.70;1.60;;;26.30;1.00;;;;;;7370638;19;20023;-72
2022/07/17 11:32:46;;;;;;;2.97;1.48;;;26.40;1.00;;;;;;7389926;19;20498;-71
2022/07/17 11:35:20;;;;;;;1.70;1.40;;;26.90;1.00;;;;;;7370081;19;20021;-71
2022/07/17 11:38:10;;;;;;;2.22;1.85;;;27.10;1.00;;;;;;7368917;19;20007;-72
2022/07/17 11:40:48;;;;;;;2.13;1.52;;;27.00;1.00;;;;;;7370023;19;20025;-72
2022/07/17 11:43:21;;;;;;;1.55;1.45;;;27.30;1.00;;;;;;7370440;19;20095;-73
2022/07/17 11:45:51;;;;;;;2.10;1.90;;;27.20;1.00;;;;;;7369041;19;20016;-71
2022/07/17 11:48:21;;;;;;;1.55;1.45;;;27.20;1.00;;;;;;7369513;19;20010;-71
2022/07/17 11:50:58;;;;;;;4.15;1.75;;;26.80;1.00;;;;;;7388395;19;20018;-74
2022/07/17 11:53:36;;;;;;;2.22;1.48;;;26.80;1.00;;;;;;7389114;19;20082;-72
2022/07/17 11:56:07;;;;;;;2.05;1.40;;;26.70;1.00;;;;;;7367450;19;20010;-71
2022/07/17 11:58:48;;;;;;;2.67;1.45;;;27.00;1.00;;;;;;7368569;19;20019;-72
2022/07/17 12:01:17;;;;;;;2.90;1.50;;;26.50;1.00;;;;;;7369675;19;20011;-72
2022/07/17 12:03:47;;;;;;;2.45;1.42;;;27.00;1.00;;;;;;7368209;19;20430;-71
2022/07/17 12:06:27;;;;;;;3.08;1.60;;;26.90;1.00;;;;;;7368836;19;20006;-72
2022/07/17 12:08:57;;;;;;;4.80;1.40;;;27.60;1.00;;;;;;7369084;19;20022;-72
2022/07/17 12:11:28;;;;;;;2.95;1.67;;;27.50;1.00;;;;;;7390260;19;20069;-72
2022/07/17 12:14:10;;;;;;;2.33;1.40;;;27.00;1.00;;;;;;7368524;19;20018;-73
2022/07/17 12:16:40;;;;;;;3.00;1.33;;;27.50;1.00;;;;;;7367254;19;20007;-72
2022/07/17 12:19:14;;;;;;;2.50;1.42;;;27.80;1.00;;;;;;7368006;19;20884;-71
2022/07/17 12:21:57;;;;;;;2.03;1.38;;;27.30;1.00;;;;;;7367605;19;20014;-72
2022/07/17 12:24:30;;;;;;;3.08;1.50;;;27.60;1.00;;;;;;7368226;19;20007;-72
2022/07/17 12:27:03;;;;;;;2.17;1.55;;;27.60;1.00;;;;;;7365678;19;20024;-72
2022/07/17 12:29:36;;;;;;;2.50;1.40;;;27.30;1.00;;;;;;7390391;19;20082;-73
2022/07/17 12:32:08;;;;;;;2.20;1.30;;;27.80;1.00;;;;;;7367304;19;20006;-71
2022/07/17 12:34:44;;;;;;;1.40;1.23;;;27.70;1.00;;;;;;7367463;19;20031;-72
2022/07/17 12:37:15;;;;;;;2.67;1.45;;;27.30;1.00;;;;;;7372111;19;20010;-72
2022/07/17 12:39:46;;;;;;;2.53;1.20;;;27.70;1.00;;;;;;7375967;19;20905;-71
2022/07/17 12:42:17;;;;;;;3.15;1.30;;;28.00;1.00;;;;;;7375277;19;20470;-73
2022/07/17 12:44:49;;;;;;;1.63;1.50;;;28.10;1.00;;;;;;7397191;19;20025;-72
2022/07/17 12:47:19;;;;;;;1.45;1.35;;;27.90;1.00;;;;;;7372055;19;20013;-72
2022/07/17 12:49:49;;;;;;;2.10;1.48;;;27.80;1.00;;;;;;7375081;19;20034;-71
2022/07/17 12:52:19;;;;;;;1.50;1.40;;;27.60;1.00;;;;;;7374452;19;20110;-71
2022/07/17 12:54:49;;;;;;;1.75;1.52;;;28.00;1.00;;;;;;7375165;19;20082;-72
2022/07/17 12:57:21;;;;;;;2.25;1.50;;;27.70;1.00;;;;;;7373238;19;20027;-72
2022/07/17 12:59:54;;;;;;;4.13;1.58;;;27.50;1.00;;;;;;7391194;19;20019;-73
2022/07/17 13:02:25;;;;;;;1.60;1.50;;;27.20;1.00;;;;;;7397449;19;20014;-72
2022/07/17 13:04:55;;;;;;;2.00;1.38;;;27.80;1.00;;;;;;7374844;19;20026;-71
2022/07/17 13:07:30;;;;;;;2.80;1.50;;;28.40;1.00;;;;;;7373887;19;20522;-71
2022/07/17 13:10:00;;;;;;;3.30;1.50;;;28.40;1.00;;;;;;7374243;19;20034;-72
2022/07/17 13:12:30;;;;;;;3.08;1.63;;;28.00;1.00;;;;;;7374200;19;20086;-73
2022/07/17 13:15:02;;;;;;;2.95;1.40;;;28.30;1.00;;;;;;7374408;19;20006;-74
2022/07/17 13:17:33;;;;;;;1.52;1.38;;;28.30;1.00;;;;;;7392886;19;20081;-72